createdAt,value
2023-05-02T00:00:55.287Z,5.20
2023-05-02T00:01:55.394Z,5.10
2023-05-02T00:02:55.459Z,5.10
2023-05-02T00:03:55.442Z,4.20
2023-05-02T00:04:55.238Z,4.60
2023-05-02T00:05:55.237Z,4.40
2023-05-02T00:06:55.335Z,5.00
2023-05-02T00:07:55.205Z,4.20
2023-05-02T00:08:55.202Z,4.90
2023-05-02T00:09:55.190Z,4.40
2023-05-02T00:10:55.188Z,4.80
2023-05-02T00:11:55.199Z,5.20
2023-05-02T00:12:55.159Z,5.30
2023-05-02T00:13:55.153Z,5.10
2023-05-02T00:14:55.126Z,4.10
2023-05-02T00:15:55.132Z,5.10
2023-05-02T00:16:55.216Z,4.70
2023-05-02T00:17:55.133Z,3.70
2023-05-02T00:18:55.095Z,5.00
2023-05-02T00:19:55.087Z,4.70
2023-05-02T00:20:55.068Z,4.80
2023-05-02T00:21:55.077Z,4.60
2023-05-02T00:22:55.053Z,4.20
2023-05-02T00:23:55.040Z,4.50
2023-05-02T00:24:55.016Z,5.50
2023-05-02T00:25:55.020Z,5.80
2023-05-02T00:26:54.990Z,6.00
2023-05-02T00:27:55.027Z,7.00
2023-05-02T00:28:55.000Z,5.30
2023-05-02T00:29:54.997Z,6.00
2023-05-02T00:30:54.993Z,6.00
2023-05-02T00:31:54.950Z,6.40
2023-05-02T00:32:55.013Z,5.80
2023-05-02T00:33:54.929Z,5.90
2023-05-02T00:34:54.920Z,5.50
2023-05-02T00:35:54.924Z,5.60
2023-05-02T00:36:54.894Z,5.80
2023-05-02T00:37:54.894Z,5.90
2023-05-02T00:38:54.856Z,5.40
2023-05-02T00:39:54.867Z,7.00
2023-05-02T00:40:54.838Z,6.20
2023-05-02T00:41:54.829Z,5.80
2023-05-02T00:42:54.825Z,5.60
2023-05-02T00:43:54.839Z,6.50
2023-05-02T00:44:54.815Z,6.20
2023-05-02T00:45:54.830Z,6.20
2023-05-02T00:46:54.894Z,6.60
2023-05-02T00:47:54.788Z,6.30
2023-05-02T00:48:54.774Z,6.60
2023-05-02T00:49:54.746Z,6.60
2023-05-02T00:50:54.721Z,6.20
2023-05-02T00:51:54.710Z,6.00
2023-05-02T00:52:54.705Z,6.00
2023-05-02T00:53:54.706Z,6.70
2023-05-02T00:54:54.707Z,6.30
2023-05-02T00:55:54.665Z,6.20
2023-05-02T00:56:54.664Z,6.70
2023-05-02T00:57:54.658Z,7.00
2023-05-02T00:58:54.639Z,6.60
2023-05-02T00:59:54.658Z,7.30
2023-05-02T01:00:54.623Z,6.50
2023-05-02T01:01:54.681Z,6.30
2023-05-02T01:02:54.686Z,6.50
2023-05-02T01:03:54.734Z,6.90
2023-05-02T01:04:54.565Z,7.10
2023-05-02T01:05:54.553Z,6.60
2023-05-02T01:06:54.571Z,6.10
2023-05-02T01:07:54.561Z,6.10
2023-05-02T01:08:54.531Z,6.70
2023-05-02T01:09:54.518Z,6.60
2023-05-02T01:10:54.511Z,6.70
2023-05-02T01:11:54.489Z,6.40
2023-05-02T01:12:54.480Z,6.70
2023-05-02T01:13:54.480Z,6.90
2023-05-02T01:14:54.468Z,6.20
2023-05-02T01:15:54.619Z,6.90
2023-05-02T01:16:54.447Z,6.40
2023-05-02T01:17:54.505Z,6.40
2023-05-02T01:18:54.419Z,7.40
2023-05-02T01:19:54.420Z,7.40
2023-05-02T01:20:54.387Z,6.80
2023-05-02T01:21:54.382Z,7.00
2023-05-02T01:22:54.373Z,6.60
2023-05-02T01:23:54.356Z,6.80
2023-05-02T01:24:54.346Z,6.50
2023-05-02T01:25:54.335Z,7.60
2023-05-02T01:26:54.338Z,6.30
2023-05-02T01:27:54.324Z,6.70
2023-05-02T01:28:54.310Z,6.60
2023-05-02T01:29:54.315Z,8.40
2023-05-02T01:30:54.275Z,7.10
2023-05-02T01:31:54.334Z,6.80
2023-05-02T01:32:54.328Z,7.30
2023-05-02T01:33:54.238Z,7.20
2023-05-02T01:34:54.244Z,6.40
2023-05-02T01:35:54.241Z,6.40
2023-05-02T01:36:54.228Z,7.40
2023-05-02T01:37:54.201Z,7.10
2023-05-02T01:38:54.198Z,8.60
2023-05-02T01:39:54.194Z,9.50
2023-05-02T01:40:54.182Z,9.40
2023-05-02T01:41:54.179Z,10.30
2023-05-02T01:42:54.144Z,10.70
2023-05-02T01:43:54.150Z,10.80
2023-05-02T01:44:54.167Z,9.60
2023-05-02T01:45:54.120Z,11.80
2023-05-02T01:46:54.183Z,11.60
2023-05-02T01:47:54.200Z,12.90
2023-05-02T01:48:54.079Z,14.10
2023-05-02T01:49:54.085Z,13.90
2023-05-02T01:50:54.065Z,12.80
2023-05-02T01:51:54.066Z,14.30
2023-05-02T01:52:54.056Z,14.70
2023-05-02T01:53:54.040Z,14.30
2023-05-02T01:54:54.014Z,13.90
2023-05-02T01:55:54.014Z,15.70
2023-05-02T01:56:54.076Z,14.20
2023-05-02T01:57:53.989Z,15.60
2023-05-02T01:58:53.990Z,15.20
2023-05-02T01:59:53.972Z,14.70
2023-05-02T02:00:53.980Z,15.30
2023-05-02T02:01:53.942Z,14.60
2023-05-02T02:02:53.966Z,15.60
2023-05-02T02:03:54.020Z,15.30
2023-05-02T02:04:53.924Z,14.30
2023-05-02T02:05:53.902Z,14.70
2023-05-02T02:06:53.997Z,14.10
2023-05-02T02:07:53.883Z,15.40
2023-05-02T02:08:53.875Z,15.40
2023-05-02T02:09:53.853Z,16.20
2023-05-02T02:10:53.856Z,15.10
2023-05-02T02:11:53.851Z,15.80
2023-05-02T02:12:53.830Z,16.10
2023-05-02T02:13:53.807Z,15.90
2023-05-02T02:14:53.806Z,16.30
2023-05-02T02:15:53.798Z,15.00
2023-05-02T02:16:53.849Z,16.70
2023-05-02T02:17:53.844Z,15.50
2023-05-02T02:18:53.756Z,16.80
2023-05-02T02:19:53.773Z,16.70
2023-05-02T02:20:53.722Z,17.40
2023-05-02T02:21:53.747Z,16.40
2023-05-02T02:22:53.718Z,17.00
2023-05-02T02:23:53.704Z,17.50
2023-05-02T02:24:54.508Z,16.40
2023-05-02T02:25:53.679Z,16.40
2023-05-02T02:26:53.672Z,17.30
2023-05-02T02:27:53.666Z,16.90
2023-05-02T02:28:53.640Z,17.00
2023-05-02T02:29:53.637Z,16.10
2023-05-02T02:30:53.659Z,15.90
2023-05-02T02:31:53.610Z,17.00
2023-05-02T02:32:53.644Z,17.50
2023-05-02T02:33:53.586Z,16.40
2023-05-02T02:34:53.580Z,17.00
2023-05-02T02:35:53.592Z,18.80
2023-05-02T02:36:53.562Z,16.80
2023-05-02T02:37:53.547Z,17.10
2023-05-02T02:38:53.527Z,17.80
2023-05-02T02:39:53.522Z,17.40
2023-05-02T02:40:53.524Z,17.90
2023-05-02T02:41:53.482Z,17.70
2023-05-02T02:42:53.475Z,20.00
2023-05-02T02:43:53.470Z,19.00
2023-05-02T02:44:53.469Z,20.40
2023-05-02T02:45:53.486Z,22.40
2023-05-02T02:46:53.443Z,21.40
2023-05-02T02:47:53.500Z,24.00
2023-05-02T02:48:53.408Z,22.30
2023-05-02T02:49:53.397Z,21.70
2023-05-02T02:50:53.386Z,21.40
2023-05-02T02:51:53.416Z,21.70
2023-05-02T02:52:53.382Z,22.50
2023-05-02T02:53:53.357Z,21.60
2023-05-02T02:54:53.335Z,21.30
2023-05-02T02:55:53.345Z,22.80
2023-05-02T02:56:53.333Z,22.80
2023-05-02T02:57:53.327Z,22.60
2023-05-02T02:58:53.309Z,21.10
2023-05-02T02:59:53.314Z,22.40
2023-05-02T03:00:53.280Z,22.10
2023-05-02T03:01:53.321Z,21.50
2023-05-02T03:02:53.306Z,21.10
2023-05-02T03:03:53.298Z,20.20
2023-05-02T03:04:53.245Z,20.40
2023-05-02T03:05:53.240Z,20.60
2023-05-02T03:06:53.303Z,20.90
2023-05-02T03:07:53.231Z,20.80
2023-05-02T03:08:53.186Z,20.60
2023-05-02T03:09:53.173Z,21.70
2023-05-02T03:10:53.181Z,20.50
2023-05-02T03:11:53.168Z,20.50
2023-05-02T03:12:53.134Z,19.80
2023-05-02T03:13:53.156Z,19.20
2023-05-02T03:14:53.123Z,18.80
2023-05-02T03:15:53.137Z,19.30
2023-05-02T03:16:53.103Z,18.30
2023-05-02T03:17:53.131Z,19.00
2023-05-02T03:18:53.070Z,18.00
2023-05-02T03:19:53.075Z,19.10
2023-05-02T03:20:53.064Z,17.80
2023-05-02T03:21:53.061Z,18.50
2023-05-02T03:22:53.029Z,17.60
2023-05-02T03:23:53.052Z,17.50
2023-05-02T03:24:53.015Z,18.20
2023-05-02T03:25:53.020Z,16.20
2023-05-02T03:26:52.998Z,16.60
2023-05-02T03:27:52.970Z,17.50
2023-05-02T03:28:52.973Z,15.90
2023-05-02T03:29:52.966Z,16.60
2023-05-02T03:30:52.949Z,16.20
2023-05-02T03:31:53.028Z,16.60
2023-05-02T03:32:52.955Z,15.90
2023-05-02T03:33:52.909Z,16.00
2023-05-02T03:34:52.904Z,15.40
2023-05-02T03:35:52.905Z,16.10
2023-05-02T03:36:52.893Z,16.80
2023-05-02T03:37:52.869Z,16.30
2023-05-02T03:38:52.850Z,16.20
2023-05-02T03:39:53.010Z,15.10
2023-05-02T03:40:52.853Z,16.00
2023-05-02T03:41:52.814Z,15.50
2023-05-02T03:42:52.807Z,16.40
2023-05-02T03:43:52.811Z,17.30
2023-05-02T03:44:52.798Z,16.70
2023-05-02T03:45:52.778Z,16.40
2023-05-02T03:46:52.801Z,17.00
2023-05-02T03:47:52.785Z,16.20
2023-05-02T03:48:52.755Z,17.40
2023-05-02T03:49:52.750Z,16.40
2023-05-02T03:50:52.728Z,16.00
2023-05-02T03:51:52.705Z,16.20
2023-05-02T03:52:52.693Z,16.60
2023-05-02T03:53:52.698Z,15.90
2023-05-02T03:54:52.671Z,16.60
2023-05-02T03:55:52.689Z,17.00
2023-05-02T03:56:52.662Z,15.70
2023-05-02T03:57:52.666Z,15.60
2023-05-02T03:58:52.647Z,16.40
2023-05-02T03:59:52.630Z,14.40
2023-05-02T04:00:52.614Z,15.10
2023-05-02T04:01:52.738Z,15.10
2023-05-02T04:02:52.851Z,15.20
2023-05-02T04:03:52.777Z,15.20
2023-05-02T04:04:52.594Z,14.60
2023-05-02T04:05:52.553Z,14.20
2023-05-02T04:06:52.574Z,15.00
2023-05-02T04:07:52.549Z,15.20
2023-05-02T04:08:52.543Z,15.20
2023-05-02T04:09:52.526Z,14.00
2023-05-02T04:10:52.518Z,14.40
2023-05-02T04:11:52.512Z,14.90
2023-05-02T04:12:52.510Z,13.30
2023-05-02T04:13:53.356Z,14.10
2023-05-02T04:14:52.462Z,14.40
2023-05-02T04:15:52.460Z,13.60
2023-05-02T04:16:52.463Z,13.50
2023-05-02T04:17:52.522Z,14.00
2023-05-02T04:18:52.435Z,15.00
2023-05-02T04:19:52.400Z,14.20
2023-05-02T04:20:52.403Z,15.80
2023-05-02T04:21:52.407Z,15.00
2023-05-02T04:22:52.378Z,14.20
2023-05-02T04:23:52.364Z,15.10
2023-05-02T04:24:52.371Z,15.70
2023-05-02T04:25:52.340Z,15.10
2023-05-02T04:26:52.317Z,14.60
2023-05-02T04:27:52.349Z,15.40
2023-05-02T04:28:52.298Z,15.40
2023-05-02T04:29:52.322Z,16.00
2023-05-02T04:30:52.302Z,17.10
2023-05-02T04:31:52.282Z,16.60
2023-05-02T04:32:52.353Z,16.80
2023-05-02T04:33:52.255Z,16.30
2023-05-02T04:34:52.233Z,17.00
2023-05-02T04:35:52.243Z,18.70
2023-05-02T04:36:52.219Z,16.20
2023-05-02T04:37:52.227Z,17.10
2023-05-02T04:38:52.197Z,17.20
2023-05-02T04:39:52.190Z,16.40
2023-05-02T04:40:52.183Z,17.20
2023-05-02T04:41:52.180Z,17.40
2023-05-02T04:42:52.155Z,15.80
2023-05-02T04:43:52.179Z,16.10
2023-05-02T04:44:52.129Z,17.90
2023-05-02T04:45:52.216Z,16.60
2023-05-02T04:46:52.188Z,15.80
2023-05-02T04:47:52.188Z,15.90
2023-05-02T04:48:52.092Z,16.00
2023-05-02T04:49:52.071Z,17.00
2023-05-02T04:50:52.077Z,15.00
2023-05-02T04:51:52.037Z,16.20
2023-05-02T04:52:52.049Z,16.50
2023-05-02T04:53:52.036Z,16.10
2023-05-02T04:54:52.006Z,16.80
2023-05-02T04:55:52.045Z,15.80
2023-05-02T04:56:52.037Z,14.50
2023-05-02T04:57:51.981Z,13.80
2023-05-02T04:58:51.986Z,15.10
2023-05-02T04:59:52.039Z,14.20
2023-05-02T05:00:51.953Z,15.50
2023-05-02T05:01:51.990Z,14.30
2023-05-02T05:02:52.022Z,13.70
2023-05-02T05:03:52.027Z,13.80
2023-05-02T05:04:51.927Z,14.30
2023-05-02T05:05:51.918Z,13.20
2023-05-02T05:06:52.054Z,13.80
2023-05-02T05:07:51.891Z,14.20
2023-05-02T05:08:51.888Z,13.80
2023-05-02T05:09:53.279Z,13.40
2023-05-02T05:10:51.906Z,14.00
2023-05-02T05:11:51.836Z,13.90
2023-05-02T05:12:51.846Z,14.40
2023-05-02T05:13:51.822Z,14.00
2023-05-02T05:14:51.815Z,13.40
2023-05-02T05:15:51.865Z,14.90
2023-05-02T05:16:51.862Z,14.60
2023-05-02T05:17:51.810Z,12.60
2023-05-02T05:18:51.815Z,13.30
2023-05-02T05:19:51.775Z,13.20
2023-05-02T05:20:51.758Z,14.50
2023-05-02T05:21:51.744Z,14.20
2023-05-02T05:22:51.713Z,14.20
2023-05-02T05:23:51.702Z,14.10
2023-05-02T05:24:59.510Z,13.90
2023-05-02T05:25:51.687Z,13.80
2023-05-02T05:26:51.685Z,13.20
2023-05-02T05:27:51.647Z,13.90
2023-05-02T05:28:51.657Z,12.80
2023-05-02T05:29:51.651Z,14.40
2023-05-02T05:30:51.633Z,14.00
2023-05-02T05:31:51.668Z,12.30
2023-05-02T05:32:51.646Z,13.10
2023-05-02T05:33:51.639Z,13.20
2023-05-02T05:34:51.582Z,14.20
2023-05-02T05:35:51.578Z,13.90
2023-05-02T05:36:51.592Z,13.60
2023-05-02T05:37:51.566Z,15.10
2023-05-02T05:38:51.576Z,14.50
2023-05-02T05:39:51.533Z,14.90
2023-05-02T05:40:51.507Z,13.70
2023-05-02T05:41:51.525Z,15.00
2023-05-02T05:42:51.509Z,14.40
2023-05-02T05:43:51.499Z,15.00
2023-05-02T05:44:51.469Z,15.00
2023-05-02T05:45:51.453Z,14.60
2023-05-02T05:46:51.478Z,14.40
2023-05-02T05:47:51.680Z,15.30
2023-05-02T05:48:51.455Z,14.50
2023-05-02T05:49:51.420Z,16.20
2023-05-02T05:50:51.384Z,14.30
2023-05-02T05:51:51.405Z,14.40
2023-05-02T05:52:51.381Z,15.50
2023-05-02T05:53:51.585Z,14.60
2023-05-02T05:54:51.361Z,15.10
2023-05-02T05:55:51.335Z,15.50
2023-05-02T05:56:51.360Z,15.60
2023-05-02T05:57:51.354Z,15.70
2023-05-02T05:58:51.315Z,16.40
2023-05-02T05:59:51.386Z,16.30
2023-05-02T06:00:51.339Z,16.10
2023-05-02T06:01:51.787Z,16.80
2023-05-02T06:02:51.375Z,16.00
2023-05-02T06:03:51.334Z,15.70
2023-05-02T06:04:51.312Z,15.90
2023-05-02T06:05:51.261Z,16.10
2023-05-02T06:06:51.413Z,16.00
2023-05-02T06:07:51.241Z,16.80
2023-05-02T06:08:51.210Z,16.30
2023-05-02T06:09:51.224Z,14.80
2023-05-02T06:10:51.199Z,16.10
2023-05-02T06:11:51.171Z,18.10
2023-05-02T06:12:51.194Z,16.50
2023-05-02T06:13:51.135Z,16.60
2023-05-02T06:14:51.182Z,15.90
2023-05-02T06:15:51.262Z,16.10
2023-05-02T06:16:51.154Z,16.90
2023-05-02T06:17:51.159Z,15.40
2023-05-02T06:18:51.101Z,16.00
2023-05-02T06:19:51.142Z,16.30
2023-05-02T06:20:51.076Z,16.80
2023-05-02T06:21:51.725Z,15.60
2023-05-02T06:22:51.057Z,14.30
2023-05-02T06:23:51.020Z,15.20
2023-05-02T06:24:51.093Z,15.90
2023-05-02T06:25:51.025Z,16.00
2023-05-02T06:26:51.353Z,16.50
2023-05-02T06:27:50.997Z,15.00
2023-05-02T06:28:50.981Z,15.70
2023-05-02T06:29:50.991Z,14.70
2023-05-02T06:30:50.972Z,15.90
2023-05-02T06:31:51.013Z,13.40
2023-05-02T06:32:50.995Z,13.50
2023-05-02T06:33:50.926Z,13.80
2023-05-02T06:34:50.935Z,13.90
2023-05-02T06:35:50.928Z,13.10
2023-05-02T06:36:50.908Z,14.20
2023-05-02T06:37:50.938Z,12.70
2023-05-02T06:38:50.874Z,13.00
2023-05-02T06:39:50.880Z,12.70
2023-05-02T06:40:50.936Z,13.70
2023-05-02T06:41:50.864Z,13.40
2023-05-02T06:42:50.819Z,13.10
2023-05-02T06:43:50.800Z,12.70
2023-05-02T06:44:50.814Z,12.10
2023-05-02T06:45:50.838Z,13.20
2023-05-02T06:46:51.309Z,12.10
2023-05-02T06:47:50.846Z,12.80
2023-05-02T06:48:50.789Z,11.80
2023-05-02T06:49:50.794Z,11.40
2023-05-02T06:50:50.785Z,11.60
2023-05-02T06:51:50.740Z,11.20
2023-05-02T06:52:50.708Z,11.20
2023-05-02T06:53:50.735Z,12.00
2023-05-02T06:54:50.743Z,11.90
2023-05-02T06:55:50.676Z,9.80
2023-05-02T06:56:50.674Z,11.70
2023-05-02T06:57:50.648Z,10.80
2023-05-02T06:58:50.769Z,10.90
2023-05-02T06:59:50.674Z,12.10
2023-05-02T07:00:50.701Z,10.30
2023-05-02T07:01:50.624Z,10.70
2023-05-02T07:02:50.692Z,11.00
2023-05-02T07:03:50.702Z,10.60
2023-05-02T07:04:50.575Z,10.70
2023-05-02T07:05:50.583Z,10.00
2023-05-02T07:06:50.729Z,10.30
2023-05-02T07:07:50.557Z,9.90
2023-05-02T07:08:50.526Z,9.60
2023-05-02T07:09:50.551Z,10.80
2023-05-02T07:10:50.489Z,9.10
2023-05-02T07:11:50.495Z,9.80
2023-05-02T07:12:50.536Z,10.20
2023-05-02T07:13:50.486Z,10.30
2023-05-02T07:14:50.508Z,10.30
2023-05-02T07:15:50.502Z,10.40
2023-05-02T07:16:50.488Z,9.90
2023-05-02T07:17:50.818Z,9.90
2023-05-02T07:18:50.421Z,9.80
2023-05-02T07:19:50.415Z,9.10
2023-05-02T07:20:50.405Z,9.50
2023-05-02T07:21:50.374Z,9.90
2023-05-02T07:22:50.365Z,9.60
2023-05-02T07:23:50.407Z,9.90
2023-05-02T07:24:50.379Z,9.20
2023-05-02T07:25:50.353Z,9.70
2023-05-02T07:26:50.317Z,9.60
2023-05-02T07:27:50.342Z,9.20
2023-05-02T07:28:50.301Z,9.80
2023-05-02T07:29:50.366Z,9.10
2023-05-02T07:30:50.274Z,9.50
2023-05-02T07:31:50.306Z,9.50
2023-05-02T07:32:50.274Z,9.70
2023-05-02T07:33:50.238Z,9.20
2023-05-02T07:34:50.247Z,8.70
2023-05-02T07:35:50.225Z,8.40
2023-05-02T07:36:50.237Z,8.60
2023-05-02T07:37:50.222Z,8.80
2023-05-02T07:38:50.244Z,8.10
2023-05-02T07:39:50.282Z,8.90
2023-05-02T07:40:50.179Z,9.10
2023-05-02T07:41:50.185Z,8.90
2023-05-02T07:42:50.158Z,7.70
2023-05-02T07:43:50.191Z,8.60
2023-05-02T07:44:50.126Z,8.10
2023-05-02T07:45:50.146Z,7.20
2023-05-02T07:46:50.201Z,7.70
2023-05-02T07:47:50.121Z,8.10
2023-05-02T07:48:50.073Z,7.50
2023-05-02T07:49:50.078Z,7.40
2023-05-02T07:50:50.310Z,7.80
2023-05-02T07:51:50.208Z,8.10
2023-05-02T07:52:50.060Z,7.60
2023-05-02T07:53:50.027Z,7.90
2023-05-02T07:54:50.051Z,8.40
2023-05-02T07:55:50.028Z,8.10
2023-05-02T07:56:50.120Z,8.10
2023-05-02T07:57:49.994Z,8.10
2023-05-02T07:58:49.960Z,8.10
2023-05-02T07:59:49.955Z,8.80
2023-05-02T08:00:49.976Z,7.90
2023-05-02T08:01:49.934Z,8.70
2023-05-02T08:02:50.030Z,7.70
2023-05-02T08:03:50.240Z,7.20
2023-05-02T08:04:49.969Z,8.40
2023-05-02T08:05:49.912Z,7.20
2023-05-02T08:06:50.099Z,7.70
2023-05-02T08:07:49.885Z,7.90
2023-05-02T08:08:49.887Z,7.60
2023-05-02T08:09:50.321Z,8.20
2023-05-02T08:10:49.853Z,7.30
2023-05-02T08:11:49.861Z,8.20
2023-05-02T08:12:49.809Z,7.80
2023-05-02T08:13:49.858Z,8.20
2023-05-02T08:14:49.795Z,7.60
2023-05-02T08:15:49.855Z,7.60
2023-05-02T08:16:49.874Z,7.60
2023-05-02T08:17:49.784Z,7.30
2023-05-02T08:18:49.752Z,7.10
2023-05-02T08:19:49.800Z,6.70
2023-05-02T08:20:49.738Z,8.30
2023-05-02T08:21:49.782Z,7.60
2023-05-02T08:22:49.772Z,6.50
2023-05-02T08:23:49.811Z,6.50
2023-05-02T08:24:49.731Z,6.80
2023-05-02T08:25:49.675Z,5.80
2023-05-02T08:26:49.706Z,6.60
2023-05-02T08:27:49.728Z,7.90
2023-05-02T08:28:49.744Z,6.60
2023-05-02T08:29:49.645Z,5.90
2023-05-02T08:30:49.625Z,6.10
2023-05-02T08:31:49.762Z,6.70
2023-05-02T08:32:49.739Z,6.50
2023-05-02T08:33:49.592Z,6.20
2023-05-02T08:34:49.667Z,5.90
2023-05-02T08:35:49.686Z,5.90
2023-05-02T08:36:49.555Z,6.20
2023-05-02T08:37:49.546Z,6.60
2023-05-02T08:38:49.590Z,6.10
2023-05-02T08:39:49.530Z,6.30
2023-05-02T08:40:49.757Z,6.50
2023-05-02T08:41:50.237Z,6.50
2023-05-02T08:42:49.559Z,6.40
2023-05-02T08:43:49.535Z,5.50
2023-05-02T08:44:49.507Z,5.30
2023-05-02T08:45:49.483Z,6.60
2023-05-02T08:46:49.504Z,6.60
2023-05-02T08:47:49.473Z,6.90
2023-05-02T08:48:49.452Z,5.60
2023-05-02T08:49:49.405Z,7.10
2023-05-02T08:50:49.438Z,7.10
2023-05-02T08:51:49.413Z,6.20
2023-05-02T08:52:50.549Z,6.40
2023-05-02T08:53:49.430Z,7.70
2023-05-02T08:54:49.361Z,6.80
2023-05-02T08:55:49.347Z,6.80
2023-05-02T08:56:49.346Z,6.50
2023-05-02T08:57:49.344Z,7.10
2023-05-02T08:58:49.371Z,7.20
2023-05-02T08:59:49.343Z,6.10
2023-05-02T09:00:49.326Z,5.60
2023-05-02T09:01:49.379Z,6.30
2023-05-02T09:02:52.262Z,6.20
2023-05-02T09:03:49.309Z,5.70
2023-05-02T09:04:49.824Z,6.80
2023-05-02T09:05:49.261Z,7.20
2023-05-02T09:06:49.252Z,8.50
2023-05-02T09:07:49.259Z,8.00
2023-05-02T09:08:49.269Z,8.80
2023-05-02T09:09:49.222Z,8.70
2023-05-02T09:10:49.278Z,8.80
2023-05-02T09:11:49.153Z,8.50
2023-05-02T09:12:49.170Z,7.70
2023-05-02T09:13:49.739Z,9.20
2023-05-02T09:14:49.131Z,8.60
2023-05-02T09:15:49.128Z,10.00
2023-05-02T09:16:49.225Z,9.40
2023-05-02T09:17:49.284Z,10.30
2023-05-02T09:18:49.096Z,9.40
2023-05-02T09:19:49.149Z,8.70
2023-05-02T09:20:49.032Z,8.50
2023-05-02T09:21:49.086Z,9.00
2023-05-02T09:22:49.067Z,9.30
2023-05-02T09:23:49.044Z,7.90
2023-05-02T09:24:49.117Z,8.20
2023-05-02T09:25:49.050Z,8.50
2023-05-02T09:26:49.024Z,9.30
2023-05-02T09:27:48.981Z,8.20
2023-05-02T09:28:48.974Z,8.10
2023-05-02T09:29:48.952Z,9.20
2023-05-02T09:30:48.951Z,8.10
2023-05-02T09:31:56.150Z,9.20
2023-05-02T09:32:50.001Z,9.40
2023-05-02T09:33:48.924Z,8.70
2023-05-02T09:34:48.901Z,8.90
2023-05-02T09:35:48.900Z,7.70
2023-05-02T09:36:48.923Z,8.70
2023-05-02T09:37:48.923Z,8.80
2023-05-02T09:38:48.861Z,8.60
2023-05-02T09:39:48.847Z,8.50
2023-05-02T09:40:48.815Z,9.40
2023-05-02T09:41:48.843Z,9.50
2023-05-02T09:42:48.843Z,8.30
2023-05-02T09:43:48.861Z,8.50
2023-05-02T09:44:48.780Z,9.00
2023-05-02T09:45:48.870Z,9.10
2023-05-02T09:46:48.872Z,8.40
2023-05-02T09:47:48.883Z,8.40
2023-05-02T09:48:48.800Z,7.70
2023-05-02T09:49:48.739Z,8.20
2023-05-02T09:50:48.775Z,9.50
2023-05-02T09:51:48.712Z,8.80
2023-05-02T09:52:48.729Z,7.70
2023-05-02T09:53:48.711Z,8.30
2023-05-02T09:54:48.656Z,8.30
2023-05-02T09:55:48.681Z,8.20
2023-05-02T09:56:48.682Z,8.60
2023-05-02T09:57:48.646Z,7.90
2023-05-02T09:58:48.634Z,7.90
2023-05-02T09:59:48.612Z,7.90
2023-05-02T10:00:48.672Z,7.90
2023-05-02T10:01:48.669Z,8.00
2023-05-02T10:02:48.621Z,8.60
2023-05-02T10:03:48.727Z,8.00
2023-05-02T10:04:48.837Z,9.00
2023-05-02T10:05:48.542Z,6.90
2023-05-02T10:06:48.665Z,7.60
2023-05-02T10:07:48.553Z,8.40
2023-05-02T10:08:48.513Z,8.20
2023-05-02T10:09:48.502Z,7.40
2023-05-02T10:10:48.757Z,8.60
2023-05-02T10:11:48.502Z,8.50
2023-05-02T10:12:48.479Z,7.00
2023-05-02T10:13:48.442Z,7.80
2023-05-02T10:14:48.475Z,6.30
2023-05-02T10:15:48.486Z,6.60
2023-05-02T10:16:48.443Z,5.50
2023-05-02T10:17:48.680Z,6.00
2023-05-02T10:18:48.414Z,5.70
2023-05-02T10:19:49.265Z,5.50
2023-05-02T10:20:48.600Z,5.00
2023-05-02T10:21:48.389Z,5.30
2023-05-02T10:22:48.346Z,5.20
2023-05-02T10:23:48.344Z,4.60
2023-05-02T10:24:48.365Z,4.80
2023-05-02T10:25:48.324Z,3.50
2023-05-02T10:26:48.347Z,3.70
2023-05-02T10:27:48.316Z,3.30
2023-05-02T10:28:49.288Z,3.30
2023-05-02T10:29:48.388Z,3.30
2023-05-02T10:30:48.306Z,3.40
2023-05-02T10:31:48.268Z,2.90
2023-05-02T10:32:48.283Z,2.90
2023-05-02T10:33:48.208Z,2.80
2023-05-02T10:34:48.397Z,3.40
2023-05-02T10:35:48.291Z,3.50
2023-05-02T10:36:48.188Z,3.90
2023-05-02T10:37:48.179Z,4.30
2023-05-02T10:38:48.204Z,4.10
2023-05-02T10:39:48.173Z,4.30
2023-05-02T10:40:48.157Z,4.40
2023-05-02T10:41:48.248Z,4.70
2023-05-02T10:42:48.125Z,4.30
2023-05-02T10:43:48.103Z,4.30
2023-05-02T10:44:48.111Z,4.10
2023-05-02T10:45:48.142Z,4.00
2023-05-02T10:46:48.097Z,4.30
2023-05-02T10:47:48.082Z,4.50
2023-05-02T10:48:48.033Z,3.50
2023-05-02T10:49:48.177Z,3.90
2023-05-02T10:50:48.040Z,4.60
2023-05-02T10:51:48.064Z,5.00
2023-05-02T10:52:48.001Z,5.00
2023-05-02T10:53:47.976Z,4.20
2023-05-02T10:54:47.985Z,5.20
2023-05-02T10:55:48.062Z,4.90
2023-05-02T10:56:47.976Z,4.80
2023-05-02T10:57:47.953Z,5.20
2023-05-02T10:58:47.963Z,5.10
2023-05-02T10:59:47.954Z,5.50
2023-05-02T11:00:47.955Z,5.40
2023-05-02T11:01:48.756Z,5.30
2023-05-02T11:02:48.075Z,6.40
2023-05-02T11:03:47.896Z,6.20
2023-05-02T11:04:47.903Z,6.00
2023-05-02T11:05:47.867Z,5.90
2023-05-02T11:06:47.936Z,6.90
2023-05-02T11:07:47.841Z,6.30
2023-05-02T11:08:47.856Z,5.60
2023-05-02T11:09:47.849Z,6.10
2023-05-02T11:10:47.856Z,5.40
2023-05-02T11:11:47.806Z,6.20
2023-05-02T11:12:47.928Z,6.30
2023-05-02T11:13:47.788Z,6.20
2023-05-02T11:14:47.917Z,5.30
2023-05-02T11:15:47.746Z,5.30
2023-05-02T11:16:47.791Z,5.40
2023-05-02T11:17:48.823Z,6.30
2023-05-02T11:18:47.749Z,5.80
2023-05-02T11:19:47.722Z,6.00
2023-05-02T11:20:47.688Z,6.10
2023-05-02T11:21:47.673Z,5.70
2023-05-02T11:22:47.789Z,5.70
2023-05-02T11:23:47.713Z,5.80
2023-05-02T11:24:47.647Z,5.70
2023-05-02T11:25:47.633Z,5.70
2023-05-02T11:26:47.662Z,6.00
2023-05-02T11:27:47.697Z,6.00
2023-05-02T11:28:47.749Z,5.70
2023-05-02T11:29:47.612Z,5.60
2023-05-02T11:30:47.574Z,5.40
2023-05-02T11:31:47.587Z,6.10
2023-05-02T11:32:47.562Z,6.20
2023-05-02T11:33:47.556Z,6.10
2023-05-02T11:34:49.259Z,5.60
2023-05-02T11:35:47.510Z,5.90
2023-05-02T11:36:47.556Z,6.40
2023-05-02T11:37:47.520Z,5.80
2023-05-02T11:38:47.519Z,5.20
2023-05-02T11:39:47.480Z,5.50
2023-05-02T11:40:47.454Z,4.90
2023-05-02T11:41:47.460Z,5.20
2023-05-02T11:42:47.463Z,5.90
2023-05-02T11:43:47.436Z,5.40
2023-05-02T11:44:47.432Z,5.90
2023-05-02T11:45:47.409Z,5.30
2023-05-02T11:46:47.443Z,5.70
2023-05-02T11:47:47.485Z,5.60
2023-05-02T11:48:47.389Z,5.30
2023-05-02T11:49:47.353Z,5.60
2023-05-02T11:50:50.462Z,5.80
2023-05-02T11:51:47.330Z,5.80
2023-05-02T11:52:47.338Z,5.00
2023-05-02T11:53:47.343Z,4.90
2023-05-02T11:54:47.305Z,5.50
2023-05-02T11:55:47.297Z,5.40
2023-05-02T11:56:47.347Z,5.80
2023-05-02T11:57:47.275Z,5.10
2023-05-02T11:58:47.274Z,5.60
2023-05-02T11:59:47.240Z,5.10
2023-05-02T12:00:47.217Z,5.30
2023-05-02T12:01:47.262Z,4.80
2023-05-02T12:02:47.427Z,4.70
2023-05-02T12:03:47.338Z,4.90
2023-05-02T12:04:47.210Z,4.70
2023-05-02T12:05:47.217Z,4.10
2023-05-02T12:06:47.276Z,5.10
2023-05-02T12:07:47.730Z,5.00
2023-05-02T12:08:47.153Z,4.20
2023-05-02T12:09:47.142Z,4.50
2023-05-02T12:10:47.187Z,4.80
2023-05-02T12:11:47.165Z,5.20
2023-05-02T12:12:47.173Z,5.00
2023-05-02T12:13:47.130Z,4.20
2023-05-02T12:14:47.068Z,5.20
2023-05-02T12:15:47.121Z,4.90
2023-05-02T12:16:47.106Z,4.50
2023-05-02T12:17:47.097Z,4.90
2023-05-02T12:18:47.035Z,4.70
2023-05-02T12:19:47.017Z,5.20
2023-05-02T12:20:47.021Z,5.00
2023-05-02T12:21:47.028Z,5.30
2023-05-02T12:22:47.017Z,5.10
2023-05-02T12:23:46.998Z,5.10
2023-05-02T12:24:46.949Z,4.30
2023-05-02T12:25:46.988Z,4.40
2023-05-02T12:26:46.942Z,4.60
2023-05-02T12:27:47.756Z,4.50
2023-05-02T12:28:46.928Z,4.20
2023-05-02T12:29:46.933Z,4.70
2023-05-02T12:30:46.892Z,3.90
2023-05-02T12:31:46.924Z,4.10
2023-05-02T12:32:46.923Z,3.90
2023-05-02T12:33:46.873Z,4.40
2023-05-02T12:34:46.900Z,3.90
2023-05-02T12:35:46.884Z,4.00
2023-05-02T12:36:46.843Z,4.10
2023-05-02T12:37:47.429Z,3.80
2023-05-02T12:38:46.812Z,3.50
2023-05-02T12:39:46.786Z,3.60
2023-05-02T12:40:46.819Z,4.10
2023-05-02T12:41:46.959Z,3.80
2023-05-02T12:42:46.778Z,3.70
2023-05-02T12:43:46.797Z,4.00
2023-05-02T12:44:46.796Z,3.60
2023-05-02T12:45:46.729Z,4.40
2023-05-02T12:46:46.770Z,3.80
2023-05-02T12:47:46.764Z,4.30
2023-05-02T12:48:46.894Z,4.30
2023-05-02T12:49:46.692Z,5.00
2023-05-02T12:50:46.693Z,4.50
2023-05-02T12:51:46.641Z,4.20
2023-05-02T12:52:46.651Z,4.90
2023-05-02T12:53:46.630Z,4.60
2023-05-02T12:54:46.785Z,4.00
2023-05-02T12:55:46.635Z,5.20
2023-05-02T12:56:46.596Z,4.60
2023-05-02T12:57:46.604Z,4.40
2023-05-02T12:58:46.580Z,4.70
2023-05-02T12:59:46.629Z,4.70
2023-05-02T13:00:47.948Z,4.30
2023-05-02T13:01:46.564Z,4.70
2023-05-02T13:02:46.557Z,4.80
2023-05-02T13:03:46.557Z,4.40
2023-05-02T13:04:46.523Z,4.50
2023-05-02T13:05:46.502Z,5.20
2023-05-02T13:06:47.304Z,4.80
2023-05-02T13:07:46.515Z,5.00